Terminal Aerodrome Forecast
Issued by NWS

Home | Current Version | Previous Version | Text Only | Print | Product List | Glossary On
Versions: 1 2 3 4 5 6 7 8 9 10 11 12 13 14 15 16 17
000
FTAK31 PAJN 011100
TAFAKT
TAF
PAKT 011124Z 0112/0212 VRB03KT P6SM VCSH SCT050 BKN070
     FM011600 33006KT P6SM SCT070
     FM020300 27005KT P6SM FEW070
      AMD LTD TO CLD VIS AND WIND 0112/0115=

USA.gov is the U.S. government's official web portal to all federal, state and local government web resources and services.